Power, Montana
Current Conditions -  °F | °C
As of 1:53 PM on Thursday 18 Dec 2014 (Local Time) from KGTF Reporting Station
Scattered Clouds Scattered Clouds  
Wind Chill: -2°   Ceiling: Unl
Heat Index:   Visibility: 10mi
Dew Point: -4°   Wind: 16mph
Humidity: 60%   Direction: 210°SSW
Pressure: 29.89"   Gusts: NA
Location:  47.71°N, 111.69°W
Report Text: KGTF 182053Z 21014KT 10SM SCT100 03/M04 A2989 RMK AO2 SLP156 T00331039 58005
Loading
Personal Weather Stations






























Interactive Weather Map New forecast layout! Learn more

10-Day Weather Forecast

Advertisements
Track Severe Weather on mobile